createdAt,value
2022-10-26T00:01:22.252Z,18.19
2022-10-26T00:03:50.171Z,18.15
2022-10-26T00:06:20.713Z,18.08
2022-10-26T00:08:48.980Z,17.96
2022-10-26T00:11:17.555Z,17.95
2022-10-26T00:13:46.646Z,17.92
2022-10-26T00:16:20.377Z,17.96
2022-10-26T00:18:48.912Z,17.97
2022-10-26T00:21:17.281Z,18.00
2022-10-26T00:23:45.528Z,17.96
2022-10-26T00:26:14.154Z,17.92
2022-10-26T00:28:42.396Z,17.78
2022-10-26T00:31:14.286Z,17.64
2022-10-26T00:33:42.273Z,17.69
2022-10-26T00:36:11.392Z,17.73
2022-10-26T00:38:45.984Z,17.72
2022-10-26T00:41:16.508Z,17.71
2022-10-26T00:43:44.538Z,17.63
2022-10-26T00:46:17.035Z,17.64
2022-10-26T00:48:53.505Z,17.59
2022-10-26T00:51:52.633Z,17.55
2022-10-26T00:54:21.546Z,17.52
2022-10-26T00:56:52.650Z,17.52
2022-10-26T00:59:22.117Z,17.50
2022-10-26T01:01:51.365Z,17.46
2022-10-26T01:04:19.835Z,17.46
2022-10-26T01:06:48.696Z,17.43
2022-10-26T01:09:18.220Z,17.36
2022-10-26T01:11:46.868Z,17.39
2022-10-26T01:14:19.643Z,17.39
2022-10-26T01:16:59.539Z,17.26
2022-10-26T01:20:04.867Z,17.36
2022-10-26T01:22:37.984Z,17.34
2022-10-26T01:25:50.916Z,17.19
2022-10-26T01:28:31.059Z,17.25
2022-10-26T01:31:01.809Z,17.27
2022-10-26T01:33:44.434Z,17.28
2022-10-26T01:36:51.469Z,17.23
2022-10-26T01:39:28.774Z,17.28
2022-10-26T01:42:01.237Z,17.13
2022-10-26T01:44:42.102Z,17.13
2022-10-26T01:47:13.093Z,17.05
2022-10-26T01:49:45.442Z,17.03
2022-10-26T01:52:13.448Z,16.93
2022-10-26T01:54:41.220Z,16.96
2022-10-26T01:57:13.936Z,16.95
2022-10-26T01:59:44.502Z,16.93
2022-10-26T02:02:37.540Z,16.93
2022-10-26T02:05:08.154Z,16.95
2022-10-26T02:07:53.982Z,16.92
2022-10-26T02:10:30.470Z,16.84
2022-10-26T02:13:04.621Z,16.84
2022-10-26T02:15:44.312Z,16.89
2022-10-26T02:18:42.564Z,16.88
2022-10-26T02:21:16.183Z,16.81
2022-10-26T02:23:47.543Z,16.77
2022-10-26T02:26:20.231Z,16.76
2022-10-26T02:28:51.490Z,16.68
2022-10-26T02:31:21.122Z,16.71
2022-10-26T02:33:51.850Z,16.72
2022-10-26T02:36:27.873Z,16.68
2022-10-26T02:38:58.815Z,16.64
2022-10-26T02:41:28.618Z,16.71
2022-10-26T02:44:30.402Z,16.63
2022-10-26T02:46:58.971Z,16.62
2022-10-26T02:49:27.582Z,16.58
2022-10-26T02:52:41.663Z,16.56
2022-10-26T02:55:16.225Z,16.61
2022-10-26T02:57:50.010Z,16.63
2022-10-26T03:00:19.541Z,16.76
2022-10-26T03:02:54.282Z,16.75
2022-10-26T03:05:26.626Z,16.78
2022-10-26T03:07:55.669Z,16.80
2022-10-26T03:10:23.740Z,16.83
2022-10-26T03:12:52.515Z,16.75
2022-10-26T03:15:21.061Z,16.83
2022-10-26T03:17:49.067Z,16.75
2022-10-26T03:20:17.341Z,16.74
2022-10-26T03:22:47.745Z,16.72
2022-10-26T03:25:18.439Z,16.61
2022-10-26T03:27:47.582Z,16.68
2022-10-26T03:30:15.663Z,16.72
2022-10-26T03:32:43.463Z,16.78
2022-10-26T03:35:11.279Z,16.81
2022-10-26T03:37:39.076Z,16.92
2022-10-26T03:40:07.494Z,16.89
2022-10-26T03:42:39.243Z,17.00
2022-10-26T03:45:08.782Z,17.00
2022-10-26T03:47:49.441Z,16.96
2022-10-26T03:50:20.196Z,16.90
2022-10-26T03:52:49.520Z,16.91
2022-10-26T03:55:17.511Z,16.93
2022-10-26T03:57:46.168Z,16.83
2022-10-26T04:00:16.690Z,16.84
2022-10-26T04:02:48.725Z,16.86
2022-10-26T04:05:16.922Z,16.82
2022-10-26T04:07:44.807Z,16.80
2022-10-26T04:10:12.600Z,16.99
2022-10-26T04:12:40.395Z,17.13
2022-10-26T04:15:08.561Z,17.03
2022-10-26T04:17:36.490Z,17.21
2022-10-26T04:20:04.728Z,17.21
2022-10-26T04:22:32.661Z,17.15
2022-10-26T04:25:00.474Z,17.22
2022-10-26T04:27:28.271Z,17.20
2022-10-26T04:29:56.063Z,17.21
2022-10-26T04:32:23.914Z,17.26
2022-10-26T04:34:54.402Z,17.26
2022-10-26T04:37:22.300Z,17.35
2022-10-26T04:39:50.244Z,17.29
2022-10-26T04:42:18.134Z,17.16
2022-10-26T04:44:45.930Z,17.31
2022-10-26T04:47:13.813Z,17.38
2022-10-26T04:49:41.597Z,17.37
2022-10-26T04:52:09.438Z,17.41
2022-10-26T04:54:37.449Z,17.42
2022-10-26T04:57:05.512Z,17.95
2022-10-26T04:59:33.489Z,18.26
2022-10-26T05:02:01.500Z,18.43
2022-10-26T05:04:29.854Z,18.27
2022-10-26T05:06:57.755Z,18.66
2022-10-26T05:09:25.699Z,18.71
2022-10-26T05:11:53.583Z,18.89
2022-10-26T05:14:21.369Z,18.97
2022-10-26T05:16:51.728Z,18.95
2022-10-26T05:19:19.569Z,18.92
2022-10-26T05:21:47.468Z,18.90
2022-10-26T05:24:15.403Z,18.84
2022-10-26T05:26:44.616Z,18.80
2022-10-26T05:29:12.457Z,18.75
2022-10-26T05:31:40.308Z,18.70
2022-10-26T05:34:08.155Z,18.45
2022-10-26T05:36:35.988Z,18.27
2022-10-26T05:39:03.994Z,18.16
2022-10-26T05:41:31.819Z,18.48
2022-10-26T05:43:59.725Z,18.45
2022-10-26T05:46:27.595Z,18.21
2022-10-26T05:48:55.428Z,17.81
2022-10-26T05:51:23.285Z,17.64
2022-10-26T05:53:54.498Z,17.43
2022-10-26T05:56:37.664Z,17.25
2022-10-26T05:59:12.187Z,17.17
2022-10-26T06:01:45.844Z,17.13
2022-10-26T06:04:35.449Z,17.15
2022-10-26T06:07:03.852Z,17.16
2022-10-26T06:09:31.962Z,17.22
2022-10-26T06:12:01.917Z,17.34
2022-10-26T06:14:29.992Z,17.36
2022-10-26T06:17:09.582Z,17.44
2022-10-26T06:19:52.338Z,17.43
2022-10-26T06:22:33.251Z,17.59
2022-10-26T06:25:25.445Z,17.69
2022-10-26T06:28:18.217Z,17.71
2022-10-26T06:30:46.219Z,17.76
2022-10-26T06:33:29.047Z,17.94
2022-10-26T06:36:03.105Z,17.93
2022-10-26T06:38:34.879Z,18.03
2022-10-26T06:41:02.877Z,18.13
2022-10-26T06:43:35.923Z,18.13
2022-10-26T06:46:23.022Z,18.29
2022-10-26T06:48:56.607Z,18.23
2022-10-26T06:51:25.903Z,18.34
2022-10-26T06:54:14.503Z,18.36
2022-10-26T06:56:43.803Z,18.46
2022-10-26T06:59:23.820Z,18.65
2022-10-26T07:01:51.815Z,18.59
2022-10-26T07:04:19.727Z,18.59
2022-10-26T07:06:47.503Z,18.72
2022-10-26T07:09:15.304Z,18.94
2022-10-26T07:11:43.075Z,18.92
2022-10-26T07:14:10.982Z,18.88
2022-10-26T07:16:38.795Z,19.01
2022-10-26T07:19:06.704Z,18.91
2022-10-26T07:21:34.511Z,19.07
2022-10-26T07:24:02.409Z,19.00
2022-10-26T07:26:30.334Z,19.10
2022-10-26T07:28:58.175Z,19.25
2022-10-26T07:31:26.651Z,19.39
2022-10-26T07:33:55.007Z,19.42
2022-10-26T07:36:23.120Z,19.34
2022-10-26T07:38:54.157Z,19.52
2022-10-26T07:41:22.007Z,19.63
2022-10-26T07:43:50.937Z,19.65
2022-10-26T07:46:18.843Z,19.65
2022-10-26T07:48:46.653Z,19.75
2022-10-26T07:51:14.821Z,19.70
2022-10-26T07:53:42.840Z,19.76
2022-10-26T07:56:11.289Z,19.88
2022-10-26T07:58:39.435Z,20.04
2022-10-26T08:01:12.772Z,20.32
2022-10-26T08:03:41.194Z,20.36
2022-10-26T08:06:10.623Z,20.26
2022-10-26T08:08:38.518Z,20.06
2022-10-26T08:11:06.726Z,20.25
2022-10-26T08:13:36.062Z,20.04
2022-10-26T08:16:05.341Z,20.20
2022-10-26T08:18:33.734Z,20.44
2022-10-26T08:21:11.231Z,20.18
2022-10-26T08:23:40.869Z,20.13
2022-10-26T08:26:11.580Z,20.34
2022-10-26T08:28:40.388Z,20.58
2022-10-26T08:31:08.263Z,20.29
2022-10-26T08:33:36.076Z,20.18
2022-10-26T08:36:05.925Z,20.31
2022-10-26T08:38:36.477Z,19.96
2022-10-26T08:41:11.809Z,20.47
2022-10-26T08:43:57.266Z,21.03
2022-10-26T08:46:33.839Z,21.05
2022-10-26T08:49:14.104Z,21.06
2022-10-26T08:51:43.070Z,21.04
2022-10-26T08:54:19.252Z,20.56
2022-10-26T08:56:53.147Z,20.68
2022-10-26T08:59:42.163Z,21.31
2022-10-26T09:02:14.318Z,21.55
2022-10-26T09:04:42.644Z,21.56
2022-10-26T09:07:35.149Z,21.98
2022-10-26T09:10:28.775Z,21.95
2022-10-26T09:13:33.657Z,21.43
2022-10-26T09:16:32.649Z,21.71
2022-10-26T09:19:20.760Z,22.31
2022-10-26T09:22:07.614Z,21.91
2022-10-26T09:24:43.499Z,22.11
2022-10-26T09:27:41.382Z,22.42
2022-10-26T09:30:20.495Z,22.60
2022-10-26T09:33:22.313Z,22.67
2022-10-26T09:35:52.844Z,22.14
2022-10-26T09:38:28.654Z,21.90
2022-10-26T09:41:00.099Z,21.85
2022-10-26T09:43:39.321Z,21.51
2022-10-26T09:46:16.054Z,21.64
2022-10-26T09:48:59.207Z,21.78
2022-10-26T09:51:29.922Z,22.19
2022-10-26T09:54:01.098Z,22.52
2022-10-26T09:56:31.642Z,22.77
2022-10-26T09:59:06.227Z,22.86
2022-10-26T10:01:38.557Z,23.16
2022-10-26T10:04:20.437Z,22.98
2022-10-26T10:06:51.247Z,23.08
2022-10-26T10:09:21.506Z,23.08
2022-10-26T10:11:55.385Z,23.33
2022-10-26T10:14:28.828Z,23.14
2022-10-26T10:17:11.055Z,23.38
2022-10-26T10:19:39.449Z,23.54
2022-10-26T10:22:16.790Z,23.48
2022-10-26T10:25:01.972Z,23.83
2022-10-26T10:27:31.108Z,23.98
2022-10-26T10:30:13.792Z,24.09
2022-10-26T10:32:41.713Z,24.04
2022-10-26T10:35:29.680Z,23.86
2022-10-26T10:37:58.025Z,24.22
2022-10-26T10:40:29.411Z,24.07
2022-10-26T10:43:24.122Z,23.76
2022-10-26T10:45:55.853Z,23.38
2022-10-26T10:48:29.022Z,23.36
2022-10-26T10:51:12.770Z,23.42
2022-10-26T10:53:55.660Z,24.04
2022-10-26T10:56:48.090Z,23.98
2022-10-26T10:59:48.055Z,24.15
2022-10-26T11:02:36.425Z,23.64
2022-10-26T11:05:27.501Z,23.60
2022-10-26T11:08:12.516Z,24.05
2022-10-26T11:10:51.533Z,24.35
2022-10-26T11:13:26.640Z,24.61
2022-10-26T11:16:00.804Z,25.00
2022-10-26T11:18:40.783Z,25.14
2022-10-26T11:21:29.995Z,25.43
2022-10-26T11:24:11.413Z,25.78
2022-10-26T11:26:57.447Z,25.27
2022-10-26T11:29:51.143Z,25.29
2022-10-26T11:32:31.422Z,25.82
2022-10-26T11:35:13.241Z,26.16
2022-10-26T11:38:02.527Z,26.27
2022-10-26T11:41:16.648Z,26.43
2022-10-26T11:48:31.811Z,26.49
2022-10-26T11:51:19.011Z,26.15
2022-10-26T11:53:49.282Z,26.29
2022-10-26T11:56:30.826Z,26.43
2022-10-26T11:59:00.400Z,25.81
2022-10-26T12:01:29.821Z,25.26
2022-10-26T12:04:02.257Z,25.03
2022-10-26T12:06:32.811Z,25.01
2022-10-26T12:09:16.473Z,24.86
2022-10-26T12:11:59.779Z,24.72
2022-10-26T12:14:33.499Z,24.73
2022-10-26T12:17:11.704Z,24.72
2022-10-26T12:19:51.588Z,24.70
2022-10-26T12:22:24.157Z,24.70
2022-10-26T12:25:21.221Z,24.54
2022-10-26T12:27:52.330Z,24.31
2022-10-26T12:30:20.831Z,24.37
2022-10-26T12:32:51.172Z,24.40
2022-10-26T12:35:40.666Z,24.50
2022-10-26T12:38:47.861Z,24.38
2022-10-26T12:41:22.276Z,24.32
2022-10-26T12:43:50.943Z,24.60
2022-10-26T12:46:18.763Z,24.66
2022-10-26T12:48:51.607Z,24.74
2022-10-26T12:51:22.978Z,24.34
2022-10-26T12:54:13.386Z,24.42
2022-10-26T12:56:51.773Z,24.52
2022-10-26T12:59:31.905Z,24.53
2022-10-26T13:02:09.401Z,24.37
2022-10-26T13:04:47.119Z,24.40
2022-10-26T13:07:28.387Z,24.42
2022-10-26T13:10:16.481Z,24.37
2022-10-26T13:13:03.309Z,24.39
2022-10-26T13:15:35.829Z,24.26
2022-10-26T13:18:19.714Z,24.38
2022-10-26T13:21:16.098Z,24.22
2022-10-26T13:24:08.652Z,24.15
2022-10-26T13:27:05.242Z,24.33
2022-10-26T13:29:54.800Z,24.27
2022-10-26T13:32:22.944Z,24.36
2022-10-26T13:34:51.874Z,24.29
2022-10-26T13:37:25.418Z,24.33
2022-10-26T13:39:56.248Z,24.19
2022-10-26T13:42:27.250Z,24.19
2022-10-26T13:45:06.909Z,24.29
2022-10-26T13:47:56.722Z,24.10
2022-10-26T13:50:31.302Z,23.99
2022-10-26T13:53:19.932Z,24.11
2022-10-26T13:55:53.975Z,24.04
2022-10-26T13:58:43.343Z,24.03
2022-10-26T14:01:13.926Z,24.12
2022-10-26T14:03:42.230Z,24.22
2022-10-26T14:06:21.162Z,24.15
2022-10-26T14:08:51.433Z,24.06
2022-10-26T14:11:23.130Z,24.10
2022-10-26T14:13:51.783Z,24.19
2022-10-26T14:16:21.087Z,24.16
2022-10-26T14:18:49.735Z,24.03
2022-10-26T14:21:21.450Z,24.16
2022-10-26T14:23:58.283Z,24.17
2022-10-26T14:26:38.144Z,24.22
2022-10-26T14:29:19.763Z,24.12
2022-10-26T14:31:50.090Z,24.07
2022-10-26T14:34:19.573Z,23.99
2022-10-26T14:37:01.822Z,24.03
2022-10-26T14:39:40.986Z,23.95
2022-10-26T14:42:20.636Z,24.03
2022-10-26T14:44:48.682Z,23.93
2022-10-26T14:47:27.366Z,23.81
2022-10-26T14:49:56.195Z,23.83
2022-10-26T14:52:31.112Z,23.80
2022-10-26T14:55:18.992Z,23.85
2022-10-26T14:57:48.643Z,23.75
2022-10-26T15:00:20.983Z,23.80
2022-10-26T15:02:55.245Z,23.75
2022-10-26T15:05:35.535Z,23.70
2022-10-26T15:08:03.959Z,23.64
2022-10-26T15:10:37.833Z,23.64
2022-10-26T15:13:15.435Z,23.58
2022-10-26T15:15:45.678Z,23.55
2022-10-26T15:18:29.602Z,23.35
2022-10-26T15:20:58.555Z,23.37
2022-10-26T15:23:29.825Z,23.42
2022-10-26T15:26:02.977Z,23.34
2022-10-26T15:28:37.209Z,23.27
2022-10-26T15:31:12.672Z,23.31
2022-10-26T15:33:57.773Z,23.22
2022-10-26T15:36:33.018Z,23.18
2022-10-26T15:39:00.903Z,23.11
2022-10-26T15:41:31.884Z,23.19
2022-10-26T15:44:02.908Z,23.12
2022-10-26T15:46:33.691Z,23.10
2022-10-26T15:49:04.262Z,23.04
2022-10-26T15:51:32.824Z,23.04
2022-10-26T15:54:04.637Z,22.93
2022-10-26T15:56:33.028Z,22.90
2022-10-26T15:59:00.934Z,22.95
2022-10-26T16:02:16.326Z,22.90
2022-10-26T16:04:44.306Z,22.79
2022-10-26T16:07:16.453Z,22.75
2022-10-26T16:09:44.794Z,22.67
2022-10-26T16:12:13.366Z,22.61
2022-10-26T16:15:00.636Z,22.61
2022-10-26T16:17:29.189Z,22.62
2022-10-26T16:19:57.113Z,22.56
2022-10-26T16:22:25.189Z,22.52
2022-10-26T16:24:53.035Z,22.45
2022-10-26T16:27:21.024Z,22.44
2022-10-26T16:29:48.959Z,22.43
2022-10-26T16:32:16.990Z,22.40
2022-10-26T16:34:44.861Z,22.33
2022-10-26T16:37:12.715Z,22.32
2022-10-26T16:39:40.595Z,22.25
2022-10-26T16:42:08.919Z,22.24
2022-10-26T16:44:38.159Z,22.18
2022-10-26T16:47:07.673Z,22.22
2022-10-26T16:49:35.527Z,22.00
2022-10-26T16:52:04.495Z,22.05
2022-10-26T16:54:32.543Z,22.07
2022-10-26T16:57:00.557Z,22.02
2022-10-26T16:59:28.592Z,21.99
2022-10-26T17:01:57.200Z,22.06
2022-10-26T17:04:25.150Z,22.07
2022-10-26T17:06:53.015Z,22.02
2022-10-26T17:09:20.976Z,21.90
2022-10-26T17:11:48.818Z,21.98
2022-10-26T17:14:16.666Z,21.98
2022-10-26T17:16:44.658Z,21.89
2022-10-26T17:19:13.574Z,21.82
2022-10-26T17:21:41.501Z,21.85
2022-10-26T17:24:10.235Z,21.85
2022-10-26T17:26:38.300Z,21.80
2022-10-26T17:29:06.453Z,21.85
2022-10-26T17:31:34.393Z,21.79
2022-10-26T17:34:02.481Z,21.81
2022-10-26T17:36:31.838Z,21.75
2022-10-26T17:39:01.125Z,21.69
2022-10-26T17:41:29.022Z,21.72
2022-10-26T17:43:57.052Z,21.73
2022-10-26T17:46:26.817Z,21.59
2022-10-26T17:48:59.083Z,21.56
2022-10-26T17:51:29.570Z,21.58
2022-10-26T17:53:59.279Z,21.57
2022-10-26T17:56:32.725Z,21.44
2022-10-26T17:59:06.257Z,21.55
2022-10-26T18:01:35.781Z,21.54
2022-10-26T18:04:03.776Z,21.55
2022-10-26T18:06:31.887Z,21.43
2022-10-26T18:08:59.870Z,21.31
2022-10-26T18:11:28.695Z,21.37
2022-10-26T18:13:57.738Z,21.38
2022-10-26T18:16:27.130Z,21.44
2022-10-26T18:19:01.037Z,21.38
2022-10-26T18:21:32.785Z,21.40
2022-10-26T18:24:00.765Z,21.32
2022-10-26T18:26:30.432Z,21.25
2022-10-26T18:29:00.363Z,21.05
2022-10-26T18:31:30.928Z,21.08
2022-10-26T18:34:03.746Z,21.15
2022-10-26T18:36:33.068Z,21.02
2022-10-26T18:39:04.223Z,21.10
2022-10-26T18:41:32.963Z,21.13
2022-10-26T18:44:02.344Z,21.13
2022-10-26T18:46:33.525Z,20.78
2022-10-26T18:49:01.733Z,20.85
2022-10-26T18:51:32.640Z,20.88
2022-10-26T18:54:01.041Z,20.88
2022-10-26T18:56:29.014Z,20.90
2022-10-26T18:58:58.958Z,20.74
2022-10-26T19:01:29.496Z,20.84
2022-10-26T19:04:00.646Z,20.85
2022-10-26T19:06:34.478Z,20.65
2022-10-26T19:09:02.881Z,20.47
2022-10-26T19:11:31.184Z,20.66
2022-10-26T19:13:59.424Z,20.60
2022-10-26T19:16:45.404Z,20.64
2022-10-26T19:19:15.775Z,20.43
2022-10-26T19:21:45.047Z,20.62
2022-10-26T19:24:19.412Z,20.66
2022-10-26T19:26:49.073Z,20.33
2022-10-26T19:29:18.667Z,20.52
2022-10-26T19:31:47.844Z,20.59
2022-10-26T19:34:16.832Z,20.46
2022-10-26T19:36:48.974Z,20.20
2022-10-26T19:39:22.658Z,20.19
2022-10-26T19:41:52.606Z,20.09
2022-10-26T19:44:25.487Z,19.98
2022-10-26T19:46:54.964Z,20.16
2022-10-26T19:49:23.957Z,20.23
2022-10-26T19:51:52.523Z,20.18
2022-10-26T19:54:20.618Z,20.06
2022-10-26T19:56:49.158Z,20.10
2022-10-26T19:59:17.175Z,20.14
2022-10-26T20:01:45.147Z,20.20
2022-10-26T20:04:13.458Z,20.24
2022-10-26T20:06:41.357Z,20.25
2022-10-26T20:09:09.417Z,20.19
2022-10-26T20:11:39.871Z,20.20
2022-10-26T20:14:07.886Z,20.20
2022-10-26T20:16:35.803Z,20.22
2022-10-26T20:19:03.634Z,19.72
2022-10-26T20:21:32.210Z,19.33
2022-10-26T20:24:00.013Z,18.92
2022-10-26T20:26:28.652Z,18.86
2022-10-26T20:28:56.649Z,18.77
2022-10-26T20:31:24.533Z,18.65
2022-10-26T20:33:53.130Z,18.57
2022-10-26T20:36:21.613Z,18.51
2022-10-26T20:38:49.738Z,18.38
2022-10-26T20:41:18.165Z,18.34
2022-10-26T20:43:46.466Z,18.36
2022-10-26T20:46:32.391Z,18.35
2022-10-26T20:49:00.489Z,18.32
2022-10-26T20:52:08.273Z,18.42
2022-10-26T20:54:52.809Z,18.33
2022-10-26T20:57:26.111Z,18.37
2022-10-26T20:59:58.744Z,18.37
2022-10-26T21:02:27.919Z,18.25
2022-10-26T21:04:55.892Z,18.20
2022-10-26T21:07:23.777Z,18.20
2022-10-26T21:09:51.701Z,18.16
2022-10-26T21:12:19.630Z,18.15
2022-10-26T21:14:47.515Z,18.16
2022-10-26T21:17:15.343Z,18.09
2022-10-26T21:19:43.246Z,18.05
2022-10-26T21:22:11.048Z,18.05
2022-10-26T21:24:38.861Z,18.00
2022-10-26T21:27:06.677Z,17.94
2022-10-26T21:29:34.522Z,17.96
2022-10-26T21:32:02.467Z,17.89
2022-10-26T21:34:30.320Z,17.81
2022-10-26T21:36:58.182Z,17.82
2022-10-26T21:39:26.043Z,17.77
2022-10-26T21:41:53.845Z,17.66
2022-10-26T21:44:38.778Z,17.69
2022-10-26T21:47:08.188Z,17.59
2022-10-26T21:49:36.328Z,17.60
2022-10-26T21:52:04.354Z,17.54
2022-10-26T21:54:32.144Z,17.55
2022-10-26T21:56:59.931Z,17.57
2022-10-26T21:59:27.702Z,17.49
2022-10-26T22:01:55.557Z,17.40
2022-10-26T22:04:23.440Z,17.43
2022-10-26T22:06:51.414Z,17.37
2022-10-26T22:09:19.330Z,17.26
2022-10-26T22:11:47.099Z,17.26
2022-10-26T22:14:15.917Z,17.26
2022-10-26T22:16:43.707Z,17.28
2022-10-26T22:19:11.559Z,17.22
2022-10-26T22:21:41.293Z,17.21
2022-10-26T22:24:09.694Z,17.18
2022-10-26T22:26:38.342Z,17.16
2022-10-26T22:29:06.212Z,17.16
2022-10-26T22:31:37.214Z,17.10
2022-10-26T22:34:08.884Z,17.05
2022-10-26T22:36:36.725Z,17.03
2022-10-26T22:39:04.786Z,16.96
2022-10-26T22:41:32.720Z,16.96
2022-10-26T22:44:00.559Z,16.93
2022-10-26T22:46:29.003Z,16.99
2022-10-26T22:48:59.418Z,17.04
2022-10-26T22:51:33.396Z,16.95
2022-10-26T22:54:03.001Z,16.98
2022-10-26T22:56:33.093Z,17.01
2022-10-26T22:59:01.232Z,16.96
2022-10-26T23:01:31.793Z,16.80
2022-10-26T23:04:00.338Z,16.83
2022-10-26T23:06:30.693Z,16.84
2022-10-26T23:08:59.023Z,16.87
2022-10-26T23:11:28.291Z,16.91
2022-10-26T23:13:58.017Z,16.84
2022-10-26T23:16:27.128Z,16.85
2022-10-26T23:18:55.160Z,16.87
2022-10-26T23:23:58.327Z,16.79
2022-10-26T23:26:26.260Z,16.77
2022-10-26T23:28:54.193Z,16.74
2022-10-26T23:31:25.771Z,16.71
2022-10-26T23:33:55.448Z,16.79
2022-10-26T23:36:24.092Z,16.84
2022-10-26T23:38:51.909Z,16.77
2022-10-26T23:41:19.767Z,16.78
2022-10-26T23:43:47.645Z,16.73
2022-10-26T23:46:15.559Z,16.73
2022-10-26T23:48:43.497Z,16.57
2022-10-26T23:51:11.324Z,16.63
2022-10-26T23:53:39.107Z,16.64
2022-10-26T23:56:07.228Z,16.68
2022-10-26T23:58:35.157Z,16.61
